Time;durP1;ratioP1;P1;durP2;ratioP2;P2;SDS_P1;SDS_P2;PMS_P1;PMS_P2;Temp;Humidity;BMP_temperature;BMP_pressure;BME280_temperature;BME280_humidity;BME280_pressure;Samples;Min_cycle;Max_cycle;Signal;HPM_P1;HPM_P2
2024/02/21 00:02:03;;;;;;;51.50;8.75;;;8.10;99.90;;;6.82;100.00;101435.28;4770801;29;20042;-82
2024/02/21 00:04:43;;;;;;;48.35;9.65;;;8.10;99.90;;;6.76;100.00;101426.69;4905061;23;20042;-82
2024/02/21 00:07:12;;;;;;;45.40;9.98;;;8.10;99.90;;;6.80;100.00;101424.00;4909528;28;20051;-83
2024/02/21 00:10:05;;;;;;;50.65;8.60;;;8.20;99.90;;;6.83;100.00;101421.34;4925571;28;20042;-81
2024/02/21 00:12:30;;;;;;;48.30;9.77;;;8.10;99.90;;;6.82;100.00;101416.97;5031993;23;20053;-84
2024/02/21 00:14:56;;;;;;;47.22;8.65;;;8.20;99.90;;;6.84;100.00;101418.66;4969704;28;20390;-84
2024/02/21 00:17:29;;;;;;;41.95;8.23;;;8.20;99.90;;;6.83;100.00;101405.63;4951275;28;20032;-82
2024/02/21 00:19:55;;;;;;;56.70;9.98;;;8.20;99.90;;;6.85;100.00;101403.84;4928959;28;20046;-83
2024/02/21 00:22:21;;;;;;;53.88;9.18;;;8.20;99.90;;;6.82;100.00;101401.25;4928525;28;20412;-83
2024/02/21 00:24:47;;;;;;;45.95;9.75;;;8.20;99.90;;;6.83;100.00;101396.00;4907306;28;20041;-83
2024/02/21 00:27:21;;;;;;;46.85;9.35;;;8.20;99.90;;;6.89;100.00;101395.88;4912903;28;20042;-83
2024/02/21 00:29:47;;;;;;;48.42;10.00;;;8.30;99.90;;;6.91;100.00;101399.34;4940086;28;20048;-84
2024/02/21 00:32:13;;;;;;;48.72;8.15;;;8.30;99.90;;;6.91;100.00;101399.34;4951185;28;20042;-82
2024/02/21 00:34:39;;;;;;;46.63;10.85;;;8.30;99.90;;;6.92;100.00;101385.34;4919993;28;20097;-83
2024/02/21 00:37:13;;;;;;;49.63;10.32;;;8.30;99.90;;;6.98;100.00;101390.44;4932722;28;20042;-83
2024/02/21 00:39:39;;;;;;;49.38;9.88;;;8.30;99.90;;;6.97;100.00;101377.38;4928282;28;20115;-83
2024/02/21 00:42:07;;;;;;;51.13;10.75;;;8.30;99.90;;;6.97;100.00;101375.63;4920601;28;20047;-83
2024/02/21 00:44:40;;;;;;;46.15;10.25;;;8.30;99.90;;;6.96;100.00;101371.28;4946308;28;20069;-83
2024/02/21 00:47:06;;;;;;;54.13;9.52;;;8.30;99.90;;;6.95;100.00;101363.47;4982569;28;20041;-83
2024/02/21 00:49:32;;;;;;;49.05;11.65;;;8.30;99.90;;;6.96;100.00;101368.66;4952651;28;20130;-84
2024/02/21 00:51:58;;;;;;;36.33;8.18;;;8.80;99.90;;;6.92;100.00;101359.16;4941076;28;20077;-83
2024/02/21 00:54:24;;;;;;;52.85;11.80;;;8.30;99.90;;;6.91;100.00;101356.56;4934356;28;20054;-83
2024/02/21 00:56:57;;;;;;;64.38;12.77;;;8.30;99.90;;;6.89;100.00;101350.50;4955454;28;20032;-84
2024/02/21 00:59:23;;;;;;;52.28;11.95;;;8.30;99.90;;;6.87;100.00;101344.44;4983500;28;20042;-83
2024/02/21 01:01:48;;;;;;;51.90;11.75;;;8.20;99.90;;;6.85;100.00;101341.00;4960849;28;20054;-84
2024/02/21 01:04:15;;;;;;;58.20;13.27;;;;;;;6.78;100.00;101330.66;4928286;28;20415;-83
2024/02/21 01:06:42;;;;;;;51.97;12.85;;;8.20;99.90;;;6.81;100.00;101334.13;4908134;28;20505;-84
2024/02/21 01:09:11;;;;;;;57.63;14.05;;;8.20;99.90;;;6.80;100.00;101329.75;4966990;28;20062;-82
2024/02/21 01:11:37;;;;;;;60.58;13.68;;;8.20;99.90;;;6.81;100.00;101318.41;4926384;28;20042;-84
2024/02/21 01:14:03;;;;;;;54.83;13.52;;;8.20;99.90;;;6.81;100.00;101318.41;4923881;28;20038;-83
2024/02/21 01:16:29;;;;;;;53.10;11.95;;;8.20;99.90;;;6.77;100.00;101313.22;4919415;28;20757;-83
2024/02/21 01:18:55;;;;;;;64.10;14.00;;;8.10;99.90;;;6.72;100.00;101304.63;4920587;28;20071;-83
2024/02/21 01:21:30;;;;;;;63.63;15.73;;;8.10;99.90;;;6.74;100.00;101302.84;4960821;28;20034;-83
2024/02/21 01:23:56;;;;;;;59.90;14.52;;;8.10;99.90;;;6.72;100.00;101304.63;4926393;28;20038;-83
2024/02/21 01:26:21;;;;;;;54.72;14.80;;;8.10;99.90;;;6.70;100.00;101293.31;4962154;28;20179;-84
2024/02/21 01:28:47;;;;;;;55.20;14.38;;;8.10;99.90;;;6.72;100.00;101293.31;4929869;28;20046;-84
2024/02/21 01:31:20;;;;;;;65.93;15.77;;;8.10;99.90;;;6.73;100.00;101290.63;4961828;28;20046;-84
2024/02/21 01:33:46;;;;;;;67.13;15.85;;;8.10;99.90;;;6.71;100.00;101287.19;4949530;28;20528;-83
2024/02/21 01:36:12;;;;;;;66.07;16.15;;;8.10;99.90;;;6.71;100.00;101286.31;4937549;28;20043;-84
2024/02/21 01:38:38;;;;;;;64.22;15.55;;;8.10;99.90;;;6.68;100.00;101282.03;4910925;28;20100;-83
2024/02/21 01:41:04;;;;;;;57.90;15.80;;;8.10;99.90;;;6.65;100.00;101273.38;4968207;28;20065;-84
2024/02/21 01:43:35;;;;;;;67.43;15.93;;;8.10;99.90;;;6.66;100.00;101264.63;4944191;28;20081;-83
2024/02/21 01:46:01;;;;;;;67.03;16.58;;;8.10;99.90;;;6.66;100.00;101262.88;4877662;28;20046;-83
2024/02/21 01:48:27;;;;;;;61.88;16.10;;;8.10;99.90;;;6.68;100.00;101266.31;4901960;28;20094;-83
2024/02/21 01:50:56;;;;;;;60.97;17.65;;;8.10;99.90;;;6.66;100.00;101257.63;4918364;28;20035;-84
2024/02/21 01:53:36;;;;;;;60.10;16.83;;;8.10;99.90;;;6.67;100.00;101253.25;4916799;28;20038;-83
2024/02/21 01:56:13;;;;;;;59.70;15.95;;;8.00;99.90;;;6.64;100.00;101248.09;4926285;28;20043;-83
2024/02/21 01:58:51;;;;;;;58.70;18.05;;;8.00;99.90;;;6.60;100.00;101249.91;4941407;28;20061;-83
2024/02/21 02:01:17;;;;;;;66.85;19.63;;;8.00;99.90;;;6.63;100.00;101246.38;4929400;28;20396;-83
2024/02/21 02:03:52;;;;;;;70.18;18.75;;;8.10;99.90;;;6.69;100.00;101236.63;4964543;28;20066;-82
2024/02/21 02:06:18;;;;;;;76.03;17.52;;;8.00;99.90;;;6.63;100.00;101236.78;4913563;28;20053;-85
2024/02/21 02:08:44;;;;;;;66.43;17.35;;;8.00;99.90;;;6.62;100.00;101234.19;4911005;28;20039;-83
2024/02/21 02:11:13;;;;;;;61.78;19.00;;;8.00;99.90;;;6.65;100.00;101223.66;4966384;28;20027;-83
2024/02/21 02:13:43;;;;;;;66.35;18.70;;;8.10;99.90;;;6.67;100.00;101225.31;4916121;28;20043;-83
2024/02/21 02:16:09;;;;;;;66.20;19.35;;;8.10;99.90;;;6.68;100.00;101215.75;4922273;28;20043;-82
2024/02/21 02:18:35;;;;;;;67.75;19.10;;;8.10;99.90;;;6.71;100.00;101221.75;4900699;28;20428;-83
2024/02/21 02:21:01;;;;;;;68.82;19.73;;;8.10;99.90;;;6.70;100.00;101206.97;4914613;28;20128;-83
2024/02/21 02:23:42;;;;;;;71.35;19.27;;;8.10;99.90;;;6.68;100.00;101202.66;4901524;28;20340;-83
2024/02/21 02:26:08;;;;;;;70.65;20.48;;;8.10;99.90;;;6.71;100.00;101192.97;4953690;28;20526;-85
2024/02/21 02:28:42;;;;;;;66.45;19.65;;;8.10;99.90;;;6.70;100.00;101186.03;4928390;28;20031;-82
2024/02/21 02:31:07;;;;;;;62.47;19.40;;;8.10;99.90;;;6.69;100.00;101175.56;4920312;28;20382;-83
2024/02/21 02:33:33;;;;;;;69.80;19.85;;;8.10;99.90;;;6.71;100.00;101176.41;4912791;28;21149;-83
2024/02/21 02:35:59;;;;;;;67.53;19.30;;;8.10;99.90;;;6.73;100.00;101170.22;4930157;28;20093;-83
2024/02/21 02:38:32;;;;;;;60.05;19.27;;;8.10;99.90;;;6.74;100.00;101164.13;4957107;28;20113;-83
2024/02/21 02:40:58;;;;;;;61.55;20.17;;;8.10;99.90;;;6.81;100.00;101166.59;4943132;28;20047;-83
2024/02/21 02:43:24;;;;;;;63.95;18.77;;;8.20;99.90;;;6.78;100.00;101157.91;4967489;28;20037;-83
2024/02/21 02:45:50;;;;;;;65.47;19.95;;;8.20;99.90;;;6.82;100.00;101147.38;4919370;28;20066;-83
2024/02/21 02:48:16;;;;;;;67.97;20.90;;;8.20;99.90;;;6.84;100.00;101138.56;4949237;28;20030;-84
2024/02/21 02:50:49;;;;;;;57.75;19.75;;;8.20;99.90;;;6.83;100.00;101143.88;4910997;28;20038;-83
2024/02/21 02:53:15;;;;;;;58.10;19.08;;;8.20;99.90;;;6.84;100.00;101135.94;4897971;28;20050;-83
2024/02/21 02:55:42;;;;;;;55.17;18.45;;;;;;;6.83;100.00;101134.25;4939374;28;20045;-84
2024/02/21 02:58:08;;;;;;;62.60;19.95;;;8.20;99.90;;;6.85;100.00;101136.84;4927291;28;20042;-82
2024/02/21 03:00:42;;;;;;;63.20;20.15;;;8.20;99.90;;;6.89;100.00;101130.59;4905866;28;20458;-83
2024/02/21 03:03:08;;;;;;;66.22;20.88;;;8.20;99.90;;;6.90;100.00;101127.09;4962128;28;20039;-84
2024/02/21 03:05:34;;;;;;;82.43;21.35;;;8.30;99.90;;;6.88;100.00;101116.66;4954726;28;20417;-83
2024/02/21 03:08:00;;;;;;;68.50;20.77;;;8.20;99.90;;;6.90;100.00;101114.00;4958254;28;20061;-84
2024/02/21 03:10:35;;;;;;;81.78;21.63;;;8.20;99.90;;;6.89;100.00;101101.81;4931690;28;20054;-83
2024/02/21 03:13:01;;;;;;;59.28;19.50;;;8.20;99.90;;;6.88;100.00;101102.72;4945414;28;20124;-83
2024/02/21 03:15:27;;;;;;;71.47;21.00;;;8.20;99.90;;;6.87;100.00;101103.59;4931221;28;20590;-83
2024/02/21 03:17:52;;;;;;;57.80;21.15;;;8.20;99.90;;;6.87;100.00;101095.75;4869245;29;20031;-83
2024/02/21 03:20:26;;;;;;;64.57;20.75;;;8.20;99.90;;;6.84;100.00;101095.84;4910036;28;20106;-84
2024/02/21 03:22:51;;;;;;;64.63;17.73;;;8.20;99.90;;;6.82;100.00;101089.78;4962112;28;20112;-85
2024/02/21 03:25:19;;;;;;;67.05;19.35;;;8.20;99.90;;;6.81;100.00;101085.44;4919340;28;20035;-84
2024/02/21 03:27:53;;;;;;;65.70;21.15;;;8.20;99.90;;;6.84;100.00;101087.97;4921112;28;20035;-83
2024/02/21 03:30:19;;;;;;;56.22;19.48;;;8.20;99.90;;;6.80;100.00;101084.56;4925647;28;20027;-84
2024/02/21 03:32:44;;;;;;;62.47;20.42;;;8.20;99.90;;;6.79;100.00;101080.25;4907615;28;20042;-83
2024/02/21 03:35:10;;;;;;;63.42;18.15;;;8.20;99.90;;;6.79;100.00;101080.25;4959990;28;20019;-85
2024/02/21 03:37:36;;;;;;;66.68;20.70;;;8.20;99.90;;;6.80;100.00;101078.47;4922036;28;20038;-84
2024/02/21 03:40:11;;;;;;;55.40;17.83;;;8.20;99.90;;;6.80;100.00;101073.25;4915087;28;20042;-83
2024/02/21 03:42:38;;;;;;;69.93;20.02;;;8.20;99.90;;;6.80;100.00;101068.00;4964053;28;20031;-85
2024/02/21 03:45:04;;;;;;;60.85;20.00;;;8.20;99.90;;;6.79;100.00;101059.31;4916501;28;20047;-84
2024/02/21 03:47:38;;;;;;;67.55;19.20;;;8.20;99.90;;;6.81;100.00;101056.66;4910666;28;20038;-84
2024/02/21 03:50:08;;;;;;;64.78;20.63;;;8.20;99.90;;;6.78;100.00;101054.97;4931751;28;20045;-84
2024/02/21 03:52:39;;;;;;;65.07;20.30;;;8.20;99.90;;;6.82;100.00;101047.91;4942789;28;21221;-83
2024/02/21 03:55:05;;;;;;;57.08;19.20;;;8.20;99.90;;;6.78;100.00;101041.88;4922492;28;20030;-82
2024/02/21 03:57:31;;;;;;;58.25;17.50;;;8.20;99.90;;;6.79;100.00;101027.91;4908423;28;20039;-84
2024/02/21 03:59:57;;;;;;;57.72;18.08;;;8.20;99.90;;;6.85;100.00;101029.50;4894769;28;21458;-85
2024/02/21 04:02:23;;;;;;;59.63;19.83;;;8.20;99.90;;;6.87;100.00;101025.06;4890961;28;20101;-84
2024/02/21 04:04:48;;;;;;;64.47;22.13;;;8.20;99.90;;;6.88;100.00;101029.41;4913506;28;20473;-84
2024/02/21 04:07:23;;;;;;;63.38;19.33;;;8.30;99.90;;;6.89;100.00;101021.53;4899535;28;20039;-84
2024/02/21 04:09:49;;;;;;;51.97;17.70;;;8.20;99.90;;;6.86;100.00;101016.38;4944753;28;20102;-84
2024/02/21 04:12:15;;;;;;;52.17;16.23;;;8.20;99.90;;;6.83;100.00;100999.91;4949249;28;20030;-84
2024/02/21 04:14:50;;;;;;;53.78;18.42;;;;;;;6.85;100.00;100998.09;4953328;28;20038;-85
2024/02/21 04:17:16;;;;;;;52.75;17.20;;;8.20;99.90;;;6.86;100.00;100991.94;4951816;28;20035;-85
2024/02/21 04:19:42;;;;;;;47.95;19.10;;;8.30;99.90;;;6.89;100.00;101007.56;4938631;28;20058;-85
2024/02/21 04:22:17;;;;;;;48.38;18.05;;;8.30;99.90;;;6.93;100.00;101011.81;4959080;28;20030;-85
2024/02/21 04:24:43;;;;;;;52.87;19.70;;;8.30;99.90;;;6.90;100.00;101015.38;4957445;28;20061;-83
2024/02/21 04:27:09;;;;;;;71.10;20.98;;;;;;;6.93;100.00;101017.94;4912443;28;20031;-85
2024/02/21 04:29:35;;;;;;;61.08;18.63;;;8.40;99.90;;;7.03;100.00;101031.63;5005166;28;20034;-84
2024/02/21 04:32:09;;;;;;;53.35;18.48;;;8.30;99.90;;;6.99;100.00;101027.38;4977877;28;20045;-83
2024/02/21 04:34:35;;;;;;;61.38;19.80;;;8.40;99.90;;;7.00;100.00;101023.88;4966492;28;20038;-84
2024/02/21 04:37:01;;;;;;;51.22;18.50;;;8.40;99.90;;;6.97;100.00;101009.06;4945350;28;20401;-84
2024/02/21 04:39:27;;;;;;;48.30;18.02;;;8.40;99.90;;;6.96;100.00;101011.75;4914076;28;20046;-84
2024/02/21 04:41:52;;;;;;;51.08;18.33;;;8.40;99.90;;;7.00;100.00;101005.53;4917046;28;20492;-84
2024/02/21 04:44:26;;;;;;;46.92;16.63;;;8.40;99.90;;;7.00;100.00;100995.06;4951738;28;20038;-84
2024/02/21 04:46:52;;;;;;;52.17;17.15;;;8.40;99.90;;;6.98;100.00;101002.09;4931239;28;20115;-84
2024/02/21 04:49:17;;;;;;;49.72;18.48;;;8.40;99.90;;;6.96;100.00;101002.13;4926552;28;20509;-84
2024/02/21 04:51:44;;;;;;;44.25;17.58;;;8.40;99.90;;;7.06;100.00;101005.38;4937647;28;20041;-84
2024/02/21 04:54:14;;;;;;;43.58;16.77;;;8.40;99.90;;;7.02;100.00;100990.66;4940921;28;20033;-85
2024/02/21 04:56:40;;;;;;;43.10;16.88;;;8.50;99.90;;;7.06;100.00;100986.16;4930055;28;20559;-84
2024/02/21 04:59:06;;;;;;;53.67;16.33;;;8.50;99.90;;;7.07;100.00;100993.13;4911082;28;20041;-85
2024/02/21 05:01:32;;;;;;;47.28;14.95;;;8.40;99.90;;;7.05;100.00;100993.16;4939380;28;20049;-85
2024/02/21 05:03:57;;;;;;;39.17;15.93;;;8.50;99.90;;;7.05;100.00;100985.31;4927197;28;20049;-84
2024/02/21 05:06:23;;;;;;;40.72;15.73;;;8.50;99.90;;;7.08;100.00;100987.84;4985079;28;20504;-84
2024/02/21 05:08:57;;;;;;;38.80;14.43;;;8.50;99.90;;;7.07;100.00;100988.75;4928663;28;20030;-84
2024/02/21 05:11:24;;;;;;;44.30;16.13;;;8.50;99.90;;;7.13;100.00;100985.13;4971714;28;20026;-83
2024/02/21 05:13:50;;;;;;;41.03;14.32;;;8.50;99.90;;;7.12;100.00;100986.84;4940790;28;20093;-85
2024/02/21 05:16:16;;;;;;;39.85;15.95;;;8.50;99.90;;;7.16;100.00;100990.25;4950739;28;20027;-84
2024/02/21 05:18:50;;;;;;;37.67;14.80;;;8.50;99.90;;;7.15;100.00;100981.53;4962965;28;20503;-85
2024/02/21 05:21:16;;;;;;;35.90;13.45;;;8.60;99.90;;;7.14;100.00;100985.03;4966685;28;20038;-85
2024/02/21 05:23:42;;;;;;;33.88;14.43;;;8.60;99.90;;;7.16;100.00;100985.88;4927302;28;20034;-84
2024/02/21 05:26:22;;;;;;;35.45;15.50;;;8.60;99.90;;;7.19;100.00;100963.97;4916543;28;20077;-85
2024/02/21 05:28:48;;;;;;;39.85;16.42;;;8.60;99.90;;;7.21;100.00;100977.88;4924093;28;20047;-85
2024/02/21 05:31:21;;;;;;;32.10;13.32;;;8.60;99.90;;;7.23;100.00;100980.44;4932778;28;20053;-85
2024/02/21 05:33:47;;;;;;;33.28;15.88;;;8.60;99.90;;;7.21;100.00;100990.97;4934821;28;20046;-84
2024/02/21 05:36:13;;;;;;;36.28;16.20;;;8.60;99.90;;;7.26;100.00;100968.13;4934009;28;20681;-84
2024/02/21 05:38:39;;;;;;;41.22;16.85;;;8.60;99.90;;;7.21;100.00;100967.41;4947383;28;20031;-85
2024/02/21 05:41:10;;;;;;;36.83;17.23;;;8.60;99.90;;;7.22;100.00;100963.88;4980166;28;20026;-84
2024/02/21 05:43:36;;;;;;;34.17;15.65;;;8.60;99.90;;;7.22;100.00;100966.50;4943445;28;20054;-84
2024/02/21 05:46:02;;;;;;;43.92;16.55;;;8.70;99.90;;;7.26;100.00;100954.19;4959566;28;21216;-84
2024/02/21 05:48:27;;;;;;;37.58;14.13;;;8.60;99.90;;;7.26;100.00;100967.28;4948368;28;20068;-83
2024/02/21 05:50:53;;;;;;;38.30;16.80;;;8.70;99.90;;;7.25;100.00;100965.56;4946760;28;20034;-84
2024/02/21 05:53:19;;;;;;;41.75;18.33;;;8.60;99.90;;;7.25;100.00;100969.03;4925712;28;20026;-85
2024/02/21 05:55:50;;;;;;;33.90;13.65;;;8.60;99.90;;;7.21;100.00;100959.53;4940855;28;20044;-84
2024/02/21 05:58:16;;;;;;;44.65;18.85;;;8.60;99.90;;;7.25;100.00;100963.78;5004637;28;20030;-84
2024/02/21 06:00:42;;;;;;;47.72;17.77;;;8.60;99.90;;;7.25;100.00;100960.31;4937697;28;20050;-85
2024/02/21 06:03:07;;;;;;;43.47;17.38;;;8.60;99.90;;;7.23;100.00;100962.97;4913466;28;20578;-84
2024/02/21 06:05:46;;;;;;;31.70;14.45;;;8.60;99.90;;;7.21;100.00;100962.16;4941946;28;20039;-84
2024/02/21 06:08:12;;;;;;;38.15;17.48;;;8.60;99.90;;;7.21;100.00;100967.41;4922322;28;20531;-85
2024/02/21 06:10:38;;;;;;;38.72;16.83;;;8.60;99.90;;;7.19;100.00;100958.72;4936358;28;20038;-84
2024/02/21 06:13:03;;;;;;;40.13;18.77;;;8.60;99.90;;;7.18;100.00;100960.50;4935478;28;20049;-84
2024/02/21 06:15:35;;;;;;;39.63;18.73;;;8.60;99.90;;;7.14;100.00;100961.47;4915356;28;20038;-85
2024/02/21 06:18:01;;;;;;;43.60;18.88;;;8.60;99.90;;;7.17;100.00;100950.94;4946949;28;20030;-84
2024/02/21 06:20:27;;;;;;;41.25;20.00;;;8.60;99.90;;;7.18;100.00;100949.16;4930945;28;20039;-85
2024/02/21 06:22:53;;;;;;;45.30;20.10;;;8.60;99.90;;;7.17;100.00;100950.94;4929769;28;20030;-85
2024/02/21 06:25:19;;;;;;;43.92;19.48;;;8.60;99.90;;;7.18;100.00;100943.94;4936432;28;20026;-84
2024/02/21 06:27:54;;;;;;;44.20;18.27;;;;;;;7.17;100.00;100942.19;4921588;28;20410;-83
2024/02/21 06:30:20;;;;;;;41.45;15.93;;;8.50;99.90;;;7.15;100.00;100928.31;4956751;28;20065;-84
2024/02/21 06:32:46;;;;;;;50.05;19.63;;;8.60;99.90;;;7.15;100.00;100934.41;4925976;28;20100;-82
2024/02/21 06:35:12;;;;;;;54.80;20.13;;;8.60;99.90;;;7.17;100.00;100927.38;4926089;28;20737;-83
2024/02/21 06:37:50;;;;;;;44.05;19.75;;;8.60;99.90;;;7.16;100.00;100923.00;4943486;28;20125;-85
2024/02/21 06:40:20;;;;;;;53.28;21.35;;;8.60;99.90;;;7.17;100.00;100923.88;4945446;28;20038;-83
2024/02/21 06:42:50;;;;;;;46.83;20.38;;;8.60;99.90;;;7.18;100.00;100936.06;4919196;28;20039;-83
2024/02/21 06:45:16;;;;;;;42.22;19.98;;;;;;;7.18;100.00;100930.84;4932642;28;21028;-83
2024/02/21 06:47:43;;;;;;;59.53;21.95;;;8.60;99.90;;;7.18;100.00;100931.69;4895994;28;20501;-83
2024/02/21 06:50:15;;;;;;;52.15;21.83;;;8.60;99.90;;;7.21;100.00;100927.25;4932015;28;20039;-83
2024/02/21 06:52:41;;;;;;;64.25;23.02;;;8.60;99.90;;;7.24;100.00;100927.19;4946127;28;20037;-85
2024/02/21 06:55:07;;;;;;;53.22;21.33;;;8.60;99.90;;;7.22;100.00;100927.22;4923426;28;20038;-85
2024/02/21 06:57:33;;;;;;;39.88;15.40;;;8.60;99.90;;;7.16;100.00;100928.25;4944784;28;20034;-82
2024/02/21 06:59:59;;;;;;;52.88;22.17;;;8.60;99.90;;;7.23;100.00;100930.69;4973777;28;20057;-84
2024/02/21 07:02:30;;;;;;;51.35;19.15;;;8.60;99.90;;;7.23;100.00;100920.22;4939662;28;20031;-83
2024/02/21 07:05:01;;;;;;;47.92;21.05;;;8.60;99.90;;;7.22;100.00;100915.91;4968614;28;20030;-84
2024/02/21 07:07:27;;;;;;;52.28;21.42;;;8.60;99.90;;;7.24;100.00;100919.34;4923118;28;20062;-84
2024/02/21 07:09:58;;;;;;;51.47;20.58;;;8.60;99.90;;;7.24;100.00;100914.09;4942726;28;20691;-85
2024/02/21 07:12:24;;;;;;;50.40;21.73;;;8.70;99.90;;;7.29;100.00;100917.41;4943909;28;20389;-85
2024/02/21 07:14:49;;;;;;;59.45;22.70;;;8.70;99.90;;;7.31;100.00;100918.22;4901913;28;20124;-85
2024/02/21 07:17:16;;;;;;;50.50;19.92;;;;;;;7.34;100.00;100931.22;4923119;28;20105;-85
2024/02/21 07:19:41;;;;;;;47.00;17.50;;;8.70;99.90;;;7.33;100.00;100934.75;4916845;28;20121;-84
2024/02/21 07:22:07;;;;;;;48.60;20.45;;;8.70;99.90;;;7.38;100.00;100927.63;4927248;28;20106;-84
2024/02/21 07:24:42;;;;;;;49.22;20.33;;;8.70;99.90;;;7.36;100.00;100929.41;4919435;28;20128;-83
2024/02/21 07:27:08;;;;;;;57.55;20.55;;;8.80;99.90;;;7.47;100.00;100932.56;4946287;28;20524;-84
2024/02/21 07:29:34;;;;;;;59.28;21.98;;;8.80;99.90;;;7.49;100.00;100943.84;4944777;28;20046;-84
2024/02/21 07:31:59;;;;;;;46.40;18.98;;;8.80;99.90;;;7.51;100.00;100938.59;4902019;28;20048;-86
2024/02/21 07:34:34;;;;;;;45.42;19.50;;;8.80;99.90;;;7.50;100.00;100937.72;4884525;28;20040;-85
2024/02/21 07:37:00;;;;;;;49.40;19.30;;;8.90;99.90;;;7.51;100.00;100928.94;4944354;28;20058;-84
2024/02/21 07:39:28;;;;;;;48.60;18.50;;;8.90;99.90;;;7.52;100.00;100929.84;4924639;28;20034;-84
2024/02/21 07:42:03;;;;;;;48.08;19.33;;;8.80;99.90;;;7.54;100.00;100928.88;4927450;28;20031;-84
2024/02/21 07:44:32;;;;;;;47.35;17.75;;;8.90;99.90;;;7.53;100.00;100927.16;4902729;28;20035;-85
2024/02/21 07:47:04;;;;;;;56.03;19.55;;;8.90;99.90;;;7.54;100.00;100928.03;4911061;28;20042;-85
2024/02/21 07:49:32;;;;;;;52.75;20.35;;;8.90;99.90;;;7.56;100.00;100932.31;4923616;28;20044;-86
2024/02/21 07:52:12;;;;;;;50.08;20.23;;;8.90;99.90;;;7.60;100.00;100933.06;4910810;28;20038;-85
2024/02/21 07:54:38;;;;;;;49.90;19.38;;;8.90;99.90;;;7.59;100.00;100928.72;4884578;28;20075;-85
2024/02/21 07:57:04;;;;;;;50.88;18.77;;;8.90;99.90;;;7.58;100.00;100927.88;4925212;28;20048;-83
2024/02/21 07:59:36;;;;;;;42.40;17.00;;;8.90;99.90;;;7.55;100.00;100914.84;4917081;28;20046;-86
2024/02/21 08:02:02;;;;;;;35.97;16.50;;;8.90;99.90;;;7.56;100.00;100919.22;4930184;28;20536;-84
2024/02/21 08:04:28;;;;;;;43.22;19.08;;;8.90;99.90;;;7.59;100.00;100915.63;4932491;28;20409;-85
2024/02/21 08:07:04;;;;;;;38.80;18.20;;;8.90;99.90;;;7.59;100.00;100911.22;4933773;28;20048;-84
2024/02/21 08:09:30;;;;;;;38.10;17.88;;;8.90;99.90;;;7.58;100.00;100908.66;4977544;28;20069;-85
2024/02/21 08:11:56;;;;;;;36.70;17.38;;;9.00;99.90;;;7.65;100.00;100915.44;4926820;28;20421;-85
2024/02/21 08:14:24;;;;;;;36.75;16.10;;;9.00;99.90;;;7.71;100.00;100928.34;4900117;28;20045;-85
2024/02/21 08:16:55;;;;;;;36.05;14.93;;;;;;;7.80;100.00;100929.81;4942698;28;20036;-86
2024/02/21 08:19:22;;;;;;;33.17;13.93;;;;;;;7.84;100.00;100926.22;4930447;28;20038;-85
2024/02/21 08:21:48;;;;;;;35.72;14.38;;;9.20;99.90;;;7.86;100.00;100919.16;4952381;28;20034;-85
2024/02/21 08:24:14;;;;;;;27.27;12.77;;;9.20;99.90;;;7.92;100.00;100920.69;4967904;28;20493;-84
2024/02/21 08:26:46;;;;;;;38.00;13.65;;;9.20;99.90;;;7.91;100.00;100927.72;4871203;28;20156;-86
2024/02/21 08:29:12;;;;;;;33.35;14.73;;;9.20;99.90;;;7.94;100.00;100926.75;4904872;28;20039;-84
2024/02/21 08:31:38;;;;;;;36.25;14.65;;;9.30;99.90;;;7.96;100.00;100936.28;4885079;28;20044;-85
2024/02/21 08:34:04;;;;;;;30.08;13.52;;;9.30;99.90;;;7.96;100.00;100931.03;4914828;28;20057;-84
2024/02/21 08:36:43;;;;;;;30.70;13.60;;;9.30;99.90;;;8.00;100.00;100931.81;4920364;28;20085;-84
2024/02/21 08:39:09;;;;;;;27.88;11.95;;;;;;;8.02;100.00;100928.22;4957314;28;20045;-84
2024/02/21 08:41:35;;;;;;;25.33;11.27;;;9.30;99.90;;;8.06;100.00;100925.50;4938879;28;20624;-84
2024/02/21 08:44:06;;;;;;;28.55;12.43;;;9.40;99.90;;;8.11;100.00;100920.97;4893634;28;20034;-84
2024/02/21 08:46:32;;;;;;;24.25;11.18;;;9.40;99.90;;;8.13;100.00;100913.91;4922959;28;20042;-84
2024/02/21 08:48:58;;;;;;;27.77;11.57;;;9.40;99.90;;;8.15;100.00;100918.19;4913490;28;20050;-84
2024/02/21 08:51:23;;;;;;;24.23;10.52;;;9.40;99.90;;;8.17;100.00;100920.75;4921312;28;20051;-84
2024/02/21 08:53:49;;;;;;;25.83;11.38;;;9.50;99.90;;;8.20;100.00;100918.88;4914630;28;20403;-84
2024/02/21 08:56:16;;;;;;;22.02;11.40;;;9.50;99.90;;;8.22;100.00;100924.06;4910479;28;20038;-84
2024/02/21 08:58:49;;;;;;;24.67;11.10;;;9.50;99.90;;;8.26;100.00;100932.72;4928939;28;20039;-85
2024/02/21 09:01:16;;;;;;;24.98;11.40;;;9.50;99.90;;;8.27;100.00;100935.28;4902889;28;20039;-84
2024/02/21 09:03:43;;;;;;;23.13;11.05;;;;;;;8.28;100.00;100933.50;4930840;28;20034;-84
2024/02/21 09:06:19;;;;;;;20.08;9.82;;;9.60;99.90;;;8.28;100.00;100928.25;4953738;28;20062;-83
2024/02/21 09:08:45;;;;;;;26.15;10.27;;;9.60;99.90;;;8.27;100.00;100926.53;4932545;28;20409;-83
2024/02/21 09:11:11;;;;;;;21.13;9.48;;;9.60;99.90;;;8.31;100.00;100930.78;4919669;28;20043;-84
2024/02/21 09:13:43;;;;;;;22.27;9.27;;;9.60;99.90;;;8.31;100.00;100925.53;4959198;28;20029;-85
2024/02/21 09:16:12;;;;;;;19.52;8.63;;;;;;;8.30;100.00;100922.06;4954149;28;20521;-84
2024/02/21 09:18:40;;;;;;;16.77;7.10;;;9.60;99.90;;;8.36;100.00;100924.47;4934112;28;20112;-84
2024/02/21 09:21:13;;;;;;;19.65;7.20;;;9.70;99.90;;;8.45;100.00;100931.19;4954471;28;20420;-84
2024/02/21 09:23:42;;;;;;;15.13;6.63;;;9.70;99.90;;;8.51;100.00;100924.88;4945520;28;20034;-85
2024/02/21 09:26:10;;;;;;;14.02;5.93;;;;;;;8.60;100.00;100932.44;4924076;28;20053;-85
2024/02/21 09:28:39;;;;;;;15.93;6.20;;;;;;;8.72;100.00;100916.22;4927311;28;20054;-85
2024/02/21 09:31:08;;;;;;;14.13;6.38;;;10.00;99.90;;;8.85;100.00;100919.28;4960668;28;20048;-84
2024/02/21 09:33:34;;;;;;;14.60;5.82;;;10.10;99.90;;;8.92;100.00;100922.53;4932188;28;20109;-84
2024/02/21 09:36:00;;;;;;;18.67;6.20;;;10.20;99.90;;;8.93;100.00;100929.50;4948423;28;20046;-85
2024/02/21 09:38:36;;;;;;;16.33;5.70;;;10.20;99.90;;;8.94;100.00;100933.84;4919627;28;21386;-84
2024/02/21 09:41:31;;;;;;;12.70;6.03;;;10.20;99.90;;;8.88;100.00;100932.31;4931754;28;20074;-86
2024/02/21 09:43:58;;;;;;;11.45;3.97;;;10.60;99.90;;;8.82;100.00;100930.75;4930409;28;20053;-85
2024/02/21 09:47:09;;;;;;;9.57;2.60;;;10.20;99.90;;;8.79;100.00;100927.38;4958914;28;20100;-87
2024/02/21 09:49:37;;;;;;;3.92;1.23;;;10.00;99.90;;;8.69;100.00;100932.09;4945884;28;20534;-85
2024/02/21 09:52:17;;;;;;;7.55;1.80;;;10.10;99.90;;;8.68;100.00;100922.50;4921331;28;20056;-85
2024/02/21 09:54:53;;;;;;;5.68;1.88;;;10.00;99.90;;;8.74;100.00;100932.78;4920890;28;20420;-85
2024/02/21 09:57:44;;;;;;;6.53;1.63;;;10.00;99.90;;;8.82;100.00;100922.88;4903757;28;20039;-85
2024/02/21 10:00:22;;;;;;;3.85;1.60;;;10.10;99.90;;;8.82;100.00;100937.78;4917655;28;20056;-85
2024/02/21 10:02:51;;;;;;;8.70;1.23;;;10.20;99.90;;;8.89;100.00;100935.78;4932710;28;20038;-85
2024/02/21 10:05:20;;;;;;;5.53;1.75;;;10.20;99.90;;;8.95;100.00;100936.41;4920037;28;20512;-85
2024/02/21 10:07:54;;;;;;;6.30;1.52;;;;;;;8.97;100.00;100933.75;4897141;28;20073;-85
2024/02/21 10:10:21;;;;;;;5.57;1.55;;;;;;;9.06;100.00;100941.28;4928575;28;20404;-85
2024/02/21 10:12:57;;;;;;;2.90;1.30;;;;;;;9.15;100.00;100937.44;4930303;28;20052;-84
2024/02/21 10:15:24;;;;;;;;;;;10.30;99.90;;;9.21;100.00;100935.44;4940318;28;20049;-85
2024/02/21 10:18:00;;;;;;;3.70;1.40;;;10.50;99.90;;;9.31;100.00;100937.72;4915401;28;20327;-85